CheckWX is a tool to help pilots better visualize weather data.  It is not intended as a substitute for an official pre-flight weather briefing.

18:31:25 UTC

SBKP TAF
Viracopos International Airport
Campinas, Brazil
TAF SBKP 221600Z 2218/2318 32007KT 9999 TS SCT030 FEW040CB TN21/2309Z TX31/2317Z PROB30 2218/2221 8000 TSRA BKN025 FEW040CB BECMG 2221/2223 02005KT NSW FEW030 BECMG 2301/2303 10005KT CAVOK BECMG 2312/2314 32010KT SCT035 PROB30 2316/2318 29007KT SHRA BKN035 FEW045TCU RMK PGG

Feb-22@
18:00 UTC

Feb-22 @ 18:00 UTC

Feb-22@
21:00 UTC

Feb-22 @ 21:00 UTC

TAF SBKP 221600Z 2218/2318 32007KT 9999 TS SCT030 FEW040CB TN21/2309Z TX31/2317Z
Wind
  • 320° at 7 KTS
Conditions
Thunderstorm
Cloud Levels
  • Scattered at 3,000' AGL
  • Few at 4,000' AGL

Feb-22@
18:00 UTC

Feb-22 @ 18:00 UTC

Feb-22@
21:00 UTC

Feb-22 @ 21:00 UTC

PROB30 2218/2221 8000 TSRA BKN025 FEW040CB

Probable - 30% Likelihood

Probable - 30% Likelihood during this time.

Conditions
Thunderstorm, Rain
Cloud Levels
  • Broken at 2,500' AGL
  • Few at 4,000' AGL

Feb-22@
21:00 UTC

Feb-22 @ 21:00 UTC

Feb-23@
01:00 UTC

Feb-23 @ 01:00 UTC

BECMG 2221/2223 02005KT NSW FEW030

Becoming

BecomingConditions expected by Fri, Feb 22, 2019 @ 23:00 UTC

Wind
  • 020° at 5 KTS
Conditions
No significant weather
Cloud Levels
  • Few at 3,000' AGL

Feb-23@
01:00 UTC

Feb-23 @ 01:00 UTC

Feb-23@
12:00 UTC

Feb-23 @ 12:00 UTC

BECMG 2301/2303 10005KT CAVOK

Becoming

BecomingConditions expected by Sat, Feb 23, 2019 @ 03:00 UTC

Wind
  • 100° at 5 KTS
Conditions
No significant weather
Cloud Levels
  • No significant clouds

Feb-23@
12:00 UTC

Feb-23 @ 12:00 UTC

Feb-23@
18:00 UTC

Feb-23 @ 18:00 UTC

BECMG 2312/2314 32010KT SCT035

Becoming

BecomingConditions expected by Sat, Feb 23, 2019 @ 14:00 UTC

Wind
  • 320° at 10 KTS
Conditions
No significant weather
Cloud Levels
  • Scattered at 3,500' AGL

Feb-23@
16:00 UTC

Feb-23 @ 16:00 UTC

Feb-23@
18:00 UTC

Feb-23 @ 18:00 UTC

PROB30 2316/2318 29007KT SHRA BKN035 FEW045TCU RMK PGG

Probable - 30% Likelihood

Probable - 30% Likelihood during this time.

Wind
  • 290° at 7 KTS
Conditions
Rain
Cloud Levels
  • Broken at 3,500' AGL
  • Few at 4,500' AGL